sensor_id;sensor_type;location;lat;lon;timestamp;pressure;altitude;pressure_sealevel;temperature;humidity
57900;BME280;60605;53.716;19.940;2023-10-08T00:01:53;99916.80;;;9.77;80.78
57900;BME280;60605;53.716;19.940;2023-10-08T00:06:58;99911.45;;;9.73;81.00
57900;BME280;60605;53.716;19.940;2023-10-08T00:12:05;99915.08;;;9.69;81.27
57900;BME280;60605;53.716;19.940;2023-10-08T00:17:12;99920.64;;;9.66;81.57
57900;BME280;60605;53.716;19.940;2023-10-08T00:22:16;99933.54;;;9.61;81.78
57900;BME280;60605;53.716;19.940;2023-10-08T00:27:21;99933.44;;;9.57;81.98
57900;BME280;60605;53.716;19.940;2023-10-08T00:32:25;99924.31;;;9.54;82.12
57900;BME280;60605;53.716;19.940;2023-10-08T00:37:29;99930.77;;;9.49;82.16
57900;BME280;60605;53.716;19.940;2023-10-08T00:42:32;99929.73;;;9.41;81.96
57900;BME280;60605;53.716;19.940;2023-10-08T00:47:36;99940.83;;;9.34;81.71
57900;BME280;60605;53.716;19.940;2023-10-08T00:52:48;99944.84;;;9.24;81.47
57900;BME280;60605;53.716;19.940;2023-10-08T00:58:05;99952.47;;;9.16;81.30
57900;BME280;60605;53.716;19.940;2023-10-08T01:03:15;99951.33;;;9.06;81.10
57900;BME280;60605;53.716;19.940;2023-10-08T01:08:20;99956.05;;;8.98;81.09
57900;BME280;60605;53.716;19.940;2023-10-08T01:13:40;99959.31;;;8.88;80.99
57900;BME280;60605;53.716;19.940;2023-10-08T01:18:48;99969.64;;;8.77;81.09
57900;BME280;60605;53.716;19.940;2023-10-08T01:23:57;99973.11;;;8.65;81.34
57900;BME280;60605;53.716;19.940;2023-10-08T01:29:03;99976.33;;;8.54;81.61
57900;BME280;60605;53.716;19.940;2023-10-08T01:34:09;99984.89;;;8.47;81.93
57900;BME280;60605;53.716;19.940;2023-10-08T01:39:18;99995.52;;;8.40;82.07
57900;BME280;60605;53.716;19.940;2023-10-08T01:44:22;100001.25;;;8.34;82.37
57900;BME280;60605;53.716;19.940;2023-10-08T01:49:27;100008.15;;;8.27;82.48
57900;BME280;60605;53.716;19.940;2023-10-08T01:54:35;100015.88;;;8.17;82.80
57900;BME280;60605;53.716;19.940;2023-10-08T01:59:39;100020.72;;;8.05;82.91
57900;BME280;60605;53.716;19.940;2023-10-08T02:04:42;100025.24;;;7.93;83.08
57900;BME280;60605;53.716;19.940;2023-10-08T02:09:47;100028.39;;;7.82;83.66
57900;BME280;60605;53.716;19.940;2023-10-08T02:14:51;100027.87;;;7.72;84.31
57900;BME280;60605;53.716;19.940;2023-10-08T02:19:54;100037.68;;;7.62;84.57
57900;BME280;60605;53.716;19.940;2023-10-08T02:24:59;100047.08;;;7.51;85.07
57900;BME280;60605;53.716;19.940;2023-10-08T02:30:07;100055.41;;;7.41;85.74
57900;BME280;60605;53.716;19.940;2023-10-08T02:35:13;100062.87;;;7.38;86.26
57900;BME280;60605;53.716;19.940;2023-10-08T02:40:16;100065.58;;;7.32;86.19
57900;BME280;60605;53.716;19.940;2023-10-08T02:45:29;100071.14;;;7.25;86.28
57900;BME280;60605;53.716;19.940;2023-10-08T02:50:33;100072.98;;;7.18;86.24
57900;BME280;60605;53.716;19.940;2023-10-08T02:55:38;100081.83;;;7.08;86.04
57900;BME280;60605;53.716;19.940;2023-10-08T03:00:48;100092.74;;;6.98;86.20
57900;BME280;60605;53.716;19.940;2023-10-08T03:05:52;100096.69;;;6.87;86.35
57900;BME280;60605;53.716;19.940;2023-10-08T03:10:56;100102.14;;;6.78;86.55
57900;BME280;60605;53.716;19.940;2023-10-08T03:16:05;100107.80;;;6.72;86.58
57900;BME280;60605;53.716;19.940;2023-10-08T03:21:12;100113.89;;;6.65;86.75
57900;BME280;60605;53.716;19.940;2023-10-08T03:26:39;100120.04;;;6.58;86.85
57900;BME280;60605;53.716;19.940;2023-10-08T03:31:43;100126.41;;;6.50;87.02
57900;BME280;60605;53.716;19.940;2023-10-08T03:36:49;100133.44;;;6.42;86.98
57900;BME280;60605;53.716;19.940;2023-10-08T03:41:53;100140.16;;;6.34;87.06
57900;BME280;60605;53.716;19.940;2023-10-08T03:47:10;100150.84;;;6.28;87.50
57900;BME280;60605;53.716;19.940;2023-10-08T03:52:14;100159.98;;;6.27;87.85
57900;BME280;60605;53.716;19.940;2023-10-08T03:57:18;100160.42;;;6.29;87.71
57900;BME280;60605;53.716;19.940;2023-10-08T04:02:28;100156.36;;;6.29;87.25
57900;BME280;60605;53.716;19.940;2023-10-08T04:07:45;100168.74;;;6.24;86.91
57900;BME280;60605;53.716;19.940;2023-10-08T04:13:01;100176.39;;;6.17;86.77
57900;BME280;60605;53.716;19.940;2023-10-08T04:18:05;100186.87;;;6.13;86.81
57900;BME280;60605;53.716;19.940;2023-10-08T04:23:09;100190.48;;;6.14;87.15
57900;BME280;60605;53.716;19.940;2023-10-08T04:28:24;100197.58;;;6.20;87.00
57900;BME280;60605;53.716;19.940;2023-10-08T04:33:31;100209.55;;;6.25;85.64
57900;BME280;60605;53.716;19.940;2023-10-08T04:38:37;100217.43;;;6.27;84.36
57900;BME280;60605;53.716;19.940;2023-10-08T04:43:43;100217.91;;;6.25;83.53
57900;BME280;60605;53.716;19.940;2023-10-08T04:48:48;100224.41;;;6.22;83.14
57900;BME280;60605;53.716;19.940;2023-10-08T04:53:58;100235.11;;;6.16;82.82
57900;BME280;60605;53.716;19.940;2023-10-08T04:59:04;100237.09;;;6.14;82.53
57900;BME280;60605;53.716;19.940;2023-10-08T05:04:08;100240.54;;;6.13;82.23
57900;BME280;60605;53.716;19.940;2023-10-08T05:09:28;100234.88;;;6.11;82.10
57900;BME280;60605;53.716;19.940;2023-10-08T05:15:05;100236.03;;;6.12;81.90
57900;BME280;60605;53.716;19.940;2023-10-08T05:20:19;100249.33;;;6.14;81.74
57900;BME280;60605;53.716;19.940;2023-10-08T05:25:43;100256.30;;;6.20;81.60
57900;BME280;60605;53.716;19.940;2023-10-08T05:31:16;100266.87;;;6.29;81.36
57900;BME280;60605;53.716;19.940;2023-10-08T05:36:20;100280.55;;;6.52;80.88
57900;BME280;60605;53.716;19.940;2023-10-08T05:41:31;100282.23;;;7.54;80.62
57900;BME280;60605;53.716;19.940;2023-10-08T05:46:42;100285.95;;;9.59;78.04
57900;BME280;60605;53.716;19.940;2023-10-08T05:52:12;100299.48;;;11.58;73.07
57900;BME280;60605;53.716;19.940;2023-10-08T05:57:28;100313.14;;;13.41;67.09
57900;BME280;60605;53.716;19.940;2023-10-08T06:02:42;100324.05;;;14.97;60.79
57900;BME280;60605;53.716;19.940;2023-10-08T06:07:53;100328.66;;;16.18;55.95
57900;BME280;60605;53.716;19.940;2023-10-08T06:13:04;100331.02;;;17.23;53.03
57900;BME280;60605;53.716;19.940;2023-10-08T06:18:33;100334.06;;;18.27;48.69
57900;BME280;60605;53.716;19.940;2023-10-08T06:23:39;100345.33;;;19.15;47.31
57900;BME280;60605;53.716;19.940;2023-10-08T06:28:45;100350.77;;;20.25;44.65
57900;BME280;60605;53.716;19.940;2023-10-08T06:33:49;100360.39;;;21.34;43.62
57900;BME280;60605;53.716;19.940;2023-10-08T06:38:53;100372.78;;;22.55;41.64
57900;BME280;60605;53.716;19.940;2023-10-08T06:43:57;100382.48;;;23.62;39.61
57900;BME280;60605;53.716;19.940;2023-10-08T06:49:18;100385.95;;;24.58;36.45
57900;BME280;60605;53.716;19.940;2023-10-08T06:54:22;100398.21;;;25.10;33.94
57900;BME280;60605;53.716;19.940;2023-10-08T06:59:26;100402.06;;;25.65;33.19
57900;BME280;60605;53.716;19.940;2023-10-08T07:04:34;100413.27;;;26.13;32.21
57900;BME280;60605;53.716;19.940;2023-10-08T07:09:38;100424.64;;;26.69;31.48
57900;BME280;60605;53.716;19.940;2023-10-08T07:14:42;100432.91;;;27.25;29.83
57900;BME280;60605;53.716;19.940;2023-10-08T07:19:47;100437.75;;;27.92;28.88
57900;BME280;60605;53.716;19.940;2023-10-08T07:24:54;100453.29;;;28.19;27.71
57900;BME280;60605;53.716;19.940;2023-10-08T07:29:58;100454.85;;;28.69;27.81
57900;BME280;60605;53.716;19.940;2023-10-08T07:35:07;100460.40;;;29.32;26.83
57900;BME280;60605;53.716;19.940;2023-10-08T07:40:23;100457.60;;;29.79;26.23
57900;BME280;60605;53.716;19.940;2023-10-08T07:45:32;100459.89;;;30.21;25.42
57900;BME280;60605;53.716;19.940;2023-10-08T07:50:44;100467.70;;;30.45;25.07
57900;BME280;60605;53.716;19.940;2023-10-08T07:55:49;100471.95;;;30.61;24.54
57900;BME280;60605;53.716;19.940;2023-10-08T08:00:52;100480.85;;;30.87;24.45
57900;BME280;60605;53.716;19.940;2023-10-08T08:05:57;100478.29;;;31.11;24.28
57900;BME280;60605;53.716;19.940;2023-10-08T08:11:05;100479.88;;;31.51;23.55
57900;BME280;60605;53.716;19.940;2023-10-08T08:16:15;100488.20;;;31.72;23.20
57900;BME280;60605;53.716;19.940;2023-10-08T08:21:23;100492.02;;;31.84;23.20
57900;BME280;60605;53.716;19.940;2023-10-08T08:26:26;100501.50;;;32.06;22.90
57900;BME280;60605;53.716;19.940;2023-10-08T08:31:42;100512.70;;;32.23;22.63
57900;BME280;60605;53.716;19.940;2023-10-08T08:36:50;100519.32;;;32.38;22.65
57900;BME280;60605;53.716;19.940;2023-10-08T08:41:58;100525.00;;;32.57;21.96
57900;BME280;60605;53.716;19.940;2023-10-08T08:47:02;100530.08;;;32.36;21.96
57900;BME280;60605;53.716;19.940;2023-10-08T08:52:09;100532.83;;;32.50;22.16
57900;BME280;60605;53.716;19.940;2023-10-08T08:57:13;100537.83;;;32.59;21.84
57900;BME280;60605;53.716;19.940;2023-10-08T09:02:17;100543.55;;;32.84;22.01
57900;BME280;60605;53.716;19.940;2023-10-08T09:07:21;100540.99;;;32.85;21.58
57900;BME280;60605;53.716;19.940;2023-10-08T09:12:26;100541.77;;;31.50;21.98
57900;BME280;60605;53.716;19.940;2023-10-08T09:17:30;100535.45;;;28.41;24.25
57900;BME280;60605;53.716;19.940;2023-10-08T09:22:33;100533.42;;;26.58;26.29
57900;BME280;60605;53.716;19.940;2023-10-08T09:27:38;100531.95;;;23.95;28.61
57900;BME280;60605;53.716;19.940;2023-10-08T09:32:49;100547.69;;;22.95;30.61
57900;BME280;60605;53.716;19.940;2023-10-08T09:37:57;100556.31;;;24.51;29.23
57900;BME280;60605;53.716;19.940;2023-10-08T09:43:01;100546.66;;;23.58;28.59
57900;BME280;60605;53.716;19.940;2023-10-08T09:48:10;100550.63;;;22.48;30.37
57900;BME280;60605;53.716;19.940;2023-10-08T09:53:18;100554.27;;;22.21;31.35
57900;BME280;60605;53.716;19.940;2023-10-08T09:58:29;100558.53;;;21.18;31.95
57900;BME280;60605;53.716;19.940;2023-10-08T10:03:34;100564.71;;;19.81;33.73
57900;BME280;60605;53.716;19.940;2023-10-08T10:08:40;100562.23;;;18.32;35.14
57900;BME280;60605;53.716;19.940;2023-10-08T10:13:49;100570.50;;;16.99;37.14
57900;BME280;60605;53.716;19.940;2023-10-08T10:18:55;100579.01;;;16.35;38.47
57900;BME280;60605;53.716;19.940;2023-10-08T10:24:03;100580.23;;;16.03;37.90
57900;BME280;60605;53.716;19.940;2023-10-08T10:34:23;100590.17;;;15.53;39.23
57900;BME280;60605;53.716;19.940;2023-10-08T10:39:31;100596.46;;;15.21;39.06
57900;BME280;60605;53.716;19.940;2023-10-08T10:44:37;100606.81;;;14.98;39.31
57900;BME280;60605;53.716;19.940;2023-10-08T10:49:43;100609.77;;;14.50;39.27
57900;BME280;60605;53.716;19.940;2023-10-08T10:54:52;100617.39;;;14.22;40.64
57900;BME280;60605;53.716;19.940;2023-10-08T11:00:04;100618.30;;;14.33;40.63
57900;BME280;60605;53.716;19.940;2023-10-08T11:05:23;100617.98;;;14.53;39.99
57900;BME280;60605;53.716;19.940;2023-10-08T11:10:36;100623.78;;;14.71;39.76
57900;BME280;60605;53.716;19.940;2023-10-08T11:15:47;100623.27;;;14.78;40.33
57900;BME280;60605;53.716;19.940;2023-10-08T11:20:53;100636.73;;;14.69;39.75
57900;BME280;60605;53.716;19.940;2023-10-08T11:26:17;100641.67;;;14.70;40.04
57900;BME280;60605;53.716;19.940;2023-10-08T11:31:22;100645.95;;;14.33;39.19
57900;BME280;60605;53.716;19.940;2023-10-08T11:36:28;100649.79;;;13.90;40.00
57900;BME280;60605;53.716;19.940;2023-10-08T11:41:32;100650.79;;;13.77;41.25
57900;BME280;60605;53.716;19.940;2023-10-08T11:46:53;100656.35;;;13.92;42.42
57900;BME280;60605;53.716;19.940;2023-10-08T11:52:04;100648.10;;;14.16;41.70
57900;BME280;60605;53.716;19.940;2023-10-08T11:57:08;100660.21;;;14.29;40.60
57900;BME280;60605;53.716;19.940;2023-10-08T12:02:12;100672.10;;;14.16;39.89
57900;BME280;60605;53.716;19.940;2023-10-08T12:07:19;100677.57;;;13.88;40.96
57900;BME280;60605;53.716;19.940;2023-10-08T12:12:23;100684.03;;;13.43;41.54
57900;BME280;60605;53.716;19.940;2023-10-08T12:17:27;100685.19;;;13.21;42.73
57900;BME280;60605;53.716;19.940;2023-10-08T12:22:41;100689.30;;;13.16;42.74
57900;BME280;60605;53.716;19.940;2023-10-08T12:27:45;100687.73;;;13.12;43.01
57900;BME280;60605;53.716;19.940;2023-10-08T12:32:48;100688.92;;;13.26;44.17
57900;BME280;60605;53.716;19.940;2023-10-08T12:37:53;100686.41;;;13.55;43.44
57900;BME280;60605;53.716;19.940;2023-10-08T12:42:57;100697.81;;;13.66;42.53
57900;BME280;60605;53.716;19.940;2023-10-08T12:48:02;100712.94;;;13.42;42.41
57900;BME280;60605;53.716;19.940;2023-10-08T12:53:06;100715.23;;;13.29;42.98
57900;BME280;60605;53.716;19.940;2023-10-08T12:58:10;100710.69;;;13.22;43.22
57900;BME280;60605;53.716;19.940;2023-10-08T13:03:14;100715.52;;;13.21;43.73
57900;BME280;60605;53.716;19.940;2023-10-08T13:08:27;100723.01;;;13.28;43.89
57900;BME280;60605;53.716;19.940;2023-10-08T13:13:31;100729.16;;;13.22;44.32
57900;BME280;60605;53.716;19.940;2023-10-08T13:18:36;100738.70;;;13.20;44.94
57900;BME280;60605;53.716;19.940;2023-10-08T13:23:41;100737.16;;;13.21;45.13
57900;BME280;60605;53.716;19.940;2023-10-08T13:28:45;100735.73;;;13.23;44.91
57900;BME280;60605;53.716;19.940;2023-10-08T13:33:49;100747.27;;;13.10;45.43
57900;BME280;60605;53.716;19.940;2023-10-08T13:38:55;100752.88;;;12.89;46.21
57900;BME280;60605;53.716;19.940;2023-10-08T13:44:00;100750.55;;;12.54;46.70
57900;BME280;60605;53.716;19.940;2023-10-08T13:49:09;100749.84;;;12.32;48.03
57900;BME280;60605;53.716;19.940;2023-10-08T13:54:14;100749.73;;;12.23;48.62
57900;BME280;60605;53.716;19.940;2023-10-08T13:59:18;100752.93;;;12.17;48.82
57900;BME280;60605;53.716;19.940;2023-10-08T14:04:22;100764.15;;;12.00;48.53
57900;BME280;60605;53.716;19.940;2023-10-08T14:09:45;100771.51;;;11.80;49.27
57900;BME280;60605;53.716;19.940;2023-10-08T14:14:49;100776.70;;;11.49;50.11
57900;BME280;60605;53.716;19.940;2023-10-08T14:19:53;100784.20;;;11.17;51.37
57900;BME280;60605;53.716;19.940;2023-10-08T14:25:03;100789.94;;;10.89;52.83
57900;BME280;60605;53.716;19.940;2023-10-08T14:30:16;100795.60;;;10.62;53.57
57900;BME280;60605;53.716;19.940;2023-10-08T14:35:25;100795.13;;;10.40;54.79
57900;BME280;60605;53.716;19.940;2023-10-08T14:40:49;100804.44;;;10.22;55.91
57900;BME280;60605;53.716;19.940;2023-10-08T14:46:12;100816.30;;;10.12;57.00
57900;BME280;60605;53.716;19.940;2023-10-08T14:51:18;100817.49;;;10.14;57.49
57900;BME280;60605;53.716;19.940;2023-10-08T14:56:23;100821.92;;;10.15;57.55
57900;BME280;60605;53.716;19.940;2023-10-08T15:01:29;100826.62;;;10.08;57.41
57900;BME280;60605;53.716;19.940;2023-10-08T15:06:36;100839.34;;;9.99;57.83
57900;BME280;60605;53.716;19.940;2023-10-08T15:11:39;100846.49;;;9.87;58.42
57900;BME280;60605;53.716;19.940;2023-10-08T15:16:44;100855.77;;;9.75;58.88
57900;BME280;60605;53.716;19.940;2023-10-08T15:21:50;100862.64;;;9.66;59.24
57900;BME280;60605;53.716;19.940;2023-10-08T15:26:54;100863.04;;;9.63;59.55
57900;BME280;60605;53.716;19.940;2023-10-08T15:31:58;100875.12;;;9.64;59.80
57900;BME280;60605;53.716;19.940;2023-10-08T15:37:01;100886.60;;;9.57;60.10
57900;BME280;60605;53.716;19.940;2023-10-08T15:42:05;100895.59;;;9.44;60.71
57900;BME280;60605;53.716;19.940;2023-10-08T15:47:09;100903.59;;;9.30;61.50
57900;BME280;60605;53.716;19.940;2023-10-08T15:52:15;100907.23;;;9.16;62.31
57900;BME280;60605;53.716;19.940;2023-10-08T15:57:19;100914.20;;;9.03;63.05
57900;BME280;60605;53.716;19.940;2023-10-08T16:02:24;100921.28;;;8.93;63.69
57900;BME280;60605;53.716;19.940;2023-10-08T16:07:27;100922.52;;;8.85;64.09
57900;BME280;60605;53.716;19.940;2023-10-08T16:12:33;100923.36;;;8.74;64.53
57900;BME280;60605;53.716;19.940;2023-10-08T16:17:36;100919.94;;;8.62;65.14
57900;BME280;60605;53.716;19.940;2023-10-08T16:22:43;100926.17;;;8.51;65.88
57900;BME280;60605;53.716;19.940;2023-10-08T16:27:50;100927.75;;;8.45;66.70
57900;BME280;60605;53.716;19.940;2023-10-08T16:32:56;100933.27;;;8.47;67.20
57900;BME280;60605;53.716;19.940;2023-10-08T16:38:00;100933.89;;;8.48;67.45
57900;BME280;60605;53.716;19.940;2023-10-08T16:43:04;100939.34;;;8.43;67.53
57900;BME280;60605;53.716;19.940;2023-10-08T16:48:08;100944.00;;;8.40;68.51
57900;BME280;60605;53.716;19.940;2023-10-08T16:53:11;100948.34;;;8.37;68.24
57900;BME280;60605;53.716;19.940;2023-10-08T16:58:19;100949.56;;;8.28;68.22
57900;BME280;60605;53.716;19.940;2023-10-08T17:03:23;100951.31;;;8.17;68.31
57900;BME280;60605;53.716;19.940;2023-10-08T17:08:27;100958.85;;;8.05;68.33
57900;BME280;60605;53.716;19.940;2023-10-08T17:13:31;100964.73;;;7.92;68.69
57900;BME280;60605;53.716;19.940;2023-10-08T17:18:35;100967.79;;;7.78;69.33
57900;BME280;60605;53.716;19.940;2023-10-08T17:23:39;100966.90;;;7.64;69.97
57900;BME280;60605;53.716;19.940;2023-10-08T17:28:42;100968.92;;;7.52;70.56
57900;BME280;60605;53.716;19.940;2023-10-08T17:33:46;100974.38;;;7.41;71.07
57900;BME280;60605;53.716;19.940;2023-10-08T17:38:49;100980.12;;;7.31;71.88
57900;BME280;60605;53.716;19.940;2023-10-08T17:43:53;100985.59;;;7.22;72.33
57900;BME280;60605;53.716;19.940;2023-10-08T17:48:56;100982.66;;;7.11;72.63
57900;BME280;60605;53.716;19.940;2023-10-08T17:54:01;100984.92;;;6.99;72.75
57900;BME280;60605;53.716;19.940;2023-10-08T17:59:06;100992.16;;;6.88;73.24
57900;BME280;60605;53.716;19.940;2023-10-08T18:04:10;100995.50;;;6.74;73.46
57900;BME280;60605;53.716;19.940;2023-10-08T18:09:14;100996.02;;;6.60;73.94
57900;BME280;60605;53.716;19.940;2023-10-08T18:14:23;100997.04;;;6.48;74.78
57900;BME280;60605;53.716;19.940;2023-10-08T18:19:28;100998.64;;;6.38;75.33
57900;BME280;60605;53.716;19.940;2023-10-08T18:24:32;100995.08;;;6.31;75.86
57900;BME280;60605;53.716;19.940;2023-10-08T18:29:37;100996.17;;;6.28;76.47
57900;BME280;60605;53.716;19.940;2023-10-08T18:34:42;101000.48;;;6.27;76.80
57900;BME280;60605;53.716;19.940;2023-10-08T18:39:46;100995.17;;;6.24;76.92
57900;BME280;60605;53.716;19.940;2023-10-08T18:44:54;100990.31;;;6.21;77.26
57900;BME280;60605;53.716;19.940;2023-10-08T18:49:58;100992.80;;;6.21;77.80
57900;BME280;60605;53.716;19.940;2023-10-08T18:55:18;100994.54;;;6.26;78.13
57900;BME280;60605;53.716;19.940;2023-10-08T19:00:24;100995.92;;;6.32;78.22
57900;BME280;60605;53.716;19.940;2023-10-08T19:05:30;100996.98;;;6.39;78.47
57900;BME280;60605;53.716;19.940;2023-10-08T19:10:34;100995.48;;;6.53;78.82
57900;BME280;60605;53.716;19.940;2023-10-08T19:15:38;100996.36;;;6.65;78.85
57900;BME280;60605;53.716;19.940;2023-10-08T19:20:44;100998.63;;;6.70;78.59
57900;BME280;60605;53.716;19.940;2023-10-08T19:25:50;101005.30;;;6.71;78.52
57900;BME280;60605;53.716;19.940;2023-10-08T19:30:54;101005.33;;;6.71;78.61
57900;BME280;60605;53.716;19.940;2023-10-08T19:35:59;101011.95;;;6.70;78.42
57900;BME280;60605;53.716;19.940;2023-10-08T19:41:03;101016.86;;;6.66;78.44
57900;BME280;60605;53.716;19.940;2023-10-08T19:46:16;101015.92;;;6.57;78.42
57900;BME280;60605;53.716;19.940;2023-10-08T19:51:26;101017.85;;;6.45;78.52
57900;BME280;60605;53.716;19.940;2023-10-08T19:56:30;101017.36;;;6.37;78.96
57900;BME280;60605;53.716;19.940;2023-10-08T20:01:33;101014.81;;;6.30;79.53
57900;BME280;60605;53.716;19.940;2023-10-08T20:06:37;101016.65;;;6.22;80.02
57900;BME280;60605;53.716;19.940;2023-10-08T20:11:41;101014.54;;;6.12;80.30
57900;BME280;60605;53.716;19.940;2023-10-08T20:16:46;101013.23;;;6.00;80.66
57900;BME280;60605;53.716;19.940;2023-10-08T20:21:51;101013.77;;;5.87;81.17
57900;BME280;60605;53.716;19.940;2023-10-08T20:26:55;101012.03;;;5.76;81.75
57900;BME280;60605;53.716;19.940;2023-10-08T20:31:59;101014.74;;;5.68;82.15
57900;BME280;60605;53.716;19.940;2023-10-08T20:37:05;101026.58;;;5.58;82.55
57900;BME280;60605;53.716;19.940;2023-10-08T20:42:08;101030.30;;;5.49;83.27
57900;BME280;60605;53.716;19.940;2023-10-08T20:47:13;101033.55;;;5.43;83.79
57900;BME280;60605;53.716;19.940;2023-10-08T20:52:17;101031.15;;;5.37;84.37
57900;BME280;60605;53.716;19.940;2023-10-08T20:57:21;101037.82;;;5.30;84.71
57900;BME280;60605;53.716;19.940;2023-10-08T21:02:28;101042.44;;;5.19;84.84
57900;BME280;60605;53.716;19.940;2023-10-08T21:07:32;101042.84;;;5.07;85.22
57900;BME280;60605;53.716;19.940;2023-10-08T21:12:43;101036.10;;;4.97;85.72
57900;BME280;60605;53.716;19.940;2023-10-08T21:17:48;101035.60;;;4.88;86.30
57900;BME280;60605;53.716;19.940;2023-10-08T21:22:56;101031.54;;;4.83;86.81
57900;BME280;60605;53.716;19.940;2023-10-08T21:27:59;101031.57;;;4.77;87.12
57900;BME280;60605;53.716;19.940;2023-10-08T21:33:04;101038.69;;;4.71;87.71
57900;BME280;60605;53.716;19.940;2023-10-08T21:38:13;101041.95;;;4.67;88.40
57900;BME280;60605;53.716;19.940;2023-10-08T21:43:17;101042.27;;;4.64;89.07
57900;BME280;60605;53.716;19.940;2023-10-08T21:48:20;101045.30;;;4.64;89.67
57900;BME280;60605;53.716;19.940;2023-10-08T21:53:24;101047.41;;;4.64;89.83
57900;BME280;60605;53.716;19.940;2023-10-08T21:58:29;101039.55;;;4.62;89.90
57900;BME280;60605;53.716;19.940;2023-10-08T22:03:32;101037.55;;;4.55;89.69
57900;BME280;60605;53.716;19.940;2023-10-08T22:08:37;101033.13;;;4.44;89.55
57900;BME280;60605;53.716;19.940;2023-10-08T22:13:42;101033.40;;;4.28;89.37
57900;BME280;60605;53.716;19.940;2023-10-08T22:18:46;101038.35;;;4.11;89.51
57900;BME280;60605;53.716;19.940;2023-10-08T22:24:00;101044.73;;;3.94;89.99
57900;BME280;60605;53.716;19.940;2023-10-08T22:29:13;101040.95;;;3.80;90.70
57900;BME280;60605;53.716;19.940;2023-10-08T22:34:19;101033.54;;;3.68;91.23
57900;BME280;60605;53.716;19.940;2023-10-08T22:39:32;101030.12;;;3.57;91.59
57900;BME280;60605;53.716;19.940;2023-10-08T22:44:36;101032.45;;;3.48;92.03
57900;BME280;60605;53.716;19.940;2023-10-08T22:49:40;101038.10;;;3.38;92.59
57900;BME280;60605;53.716;19.940;2023-10-08T22:54:44;101041.38;;;3.31;92.97
57900;BME280;60605;53.716;19.940;2023-10-08T22:59:48;101040.36;;;3.24;93.32
57900;BME280;60605;53.716;19.940;2023-10-08T23:04:52;101036.08;;;3.19;93.67
57900;BME280;60605;53.716;19.940;2023-10-08T23:09:57;101027.41;;;3.13;93.94
57900;BME280;60605;53.716;19.940;2023-10-08T23:15:00;101021.20;;;3.08;94.28
57900;BME280;60605;53.716;19.940;2023-10-08T23:20:08;101015.40;;;3.04;94.84
57900;BME280;60605;53.716;19.940;2023-10-08T23:25:14;101005.84;;;3.01;95.45
57900;BME280;60605;53.716;19.940;2023-10-08T23:30:18;100998.88;;;3.00;95.80
57900;BME280;60605;53.716;19.940;2023-10-08T23:35:21;100991.75;;;2.98;96.06
57900;BME280;60605;53.716;19.940;2023-10-08T23:40:28;100995.73;;;2.97;96.33
57900;BME280;60605;53.716;19.940;2023-10-08T23:45:34;101001.35;;;2.97;96.94
57900;BME280;60605;53.716;19.940;2023-10-08T23:50:56;100999.05;;;3.00;97.47
57900;BME280;60605;53.716;19.940;2023-10-08T23:56:00;100999.70;;;3.01;97.43
